MSC Levina — 3FJR8 — position and weather

sailwx.info

Track history (hours):
 
Tides and Currents Weather Stations Pressure Air Temp Water Temp Dewpoint Dewpoint Depression Visibility Wind Speed Wind Dir Waves Ship Positions

MSC Levina

Last reported at 2017-Dec-11 16:59 UTC. Time now 2017-Dec-12 10:21 UTC.
Position N 34°39' E 135°24'.

Length 227.6 m; beam 32.2 m; draft 12.1 m.

Type: Ship. MMSI: 355609000.

Date/timePositionNaut miles runAvg speedWind from/ knotsBaromVisibWave heightAir tempDewpointWater temp
2017-Dec-11 16:59N 34°39' E 135°24'0 0.0
2017-Dec-11 16:29N 34°39' E 135°24'0 0.0
2017-Dec-11 15:59N 34°39' E 135°24'0 0.0
2017-Dec-11 15:29N 34°39' E 135°24'0 0.0
2017-Dec-11 14:59N 34°39' E 135°24'0 0.0
2017-Dec-11 14:29N 34°39' E 135°24'0 0.0
2017-Dec-11 13:59N 34°39' E 135°24'0 0.0
2017-Dec-11 13:29N 34°39' E 135°24'0 0.0
2017-Dec-11 12:59N 34°39' E 135°24'0 0.0
2017-Dec-11 12:26N 34°39' E 135°24'0 0.0
2017-Dec-11 11:59N 34°39' E 135°24'0 0.0
2017-Dec-11 11:29N 34°39' E 135°24'0 0.0
2017-Dec-11 10:59N 34°39' E 135°24'0 0.0
2017-Dec-11 10:26N 34°39' E 135°24'0 0.0
2017-Dec-11 09:59N 34°39' E 135°24'0 0.0
2017-Dec-11 09:29N 34°39' E 135°24'0 0.0
2017-Dec-11 08:59N 34°39' E 135°24'0 0.0
2017-Dec-11 08:29N 34°39' E 135°24'0 0.0
2017-Dec-11 07:59N 34°39' E 135°24'0 0.0
2017-Dec-11 07:29N 34°39' E 135°24'0 0.0
2017-Dec-11 06:59N 34°39' E 135°24'0 0.0
2017-Dec-11 06:26N 34°39' E 135°24'0 0.0
2017-Dec-11 05:59N 34°39' E 135°24'0 0.0
2017-Dec-11 05:29N 34°39' E 135°24'0 0.0
2017-Dec-11 04:59N 34°39' E 135°24'0 0.2
2017-Dec-11 04:31N 34°39' E 135°24'3 5.2
2017-Dec-11 04:00N 34°37' E 135°21'510.5
2017-Dec-11 03:30N 34°33' E 135°17'713.8
2017-Dec-11 03:00N 34°28' E 135°11'816.4
2017-Dec-11 02:30N 34°22' E 135°04'816.4
2017-Dec-11 02:00N 34°15' E 134°59'713.0
2017-Dec-11 01:30N 34°09' E 134°59'611.1
2017-Dec-11 01:00N 34°03' E 134°58'510.8
2017-Dec-11 00:30N 33°58' E 134°58'611.7
2017-Dec-11 00:00N 33°52' E 134°57'611.5
2017-Dec-10 23:30N 33°46' E 134°56'  
2017-Dec-04 08:07N 32°38' E 133°18'26915.8
2017-Dec-03 15:05N 34°30' E 138°12'114.5
2017-Dec-03 15:00N 34°30' E 138°13'714.0
2017-Dec-03 14:30N 34°34' E 138°20'612.6
2017-Dec-03 14:00N 34°39' E 138°14'1 3.0
2017-Dec-03 13:30N 34°38' E 138°13'0 0.0
2017-Dec-03 13:00N 34°38' E 138°13'0 0.0
2017-Dec-03 11:51N 34°37' E 138°13'0 0.0
2017-Dec-03 11:29N 34°37' E 138°13'0 0.0
2017-Dec-03 10:10N 34°38' E 138°13'0 0.0
2017-Dec-03 10:00N 34°38' E 138°13'0 0.0
2017-Dec-03 08:55N 34°38' E 138°13'0 0.0
2017-Dec-03 07:42N 34°37' E 138°13'0 0.0
2017-Dec-03 07:30N 34°37' E 138°13'0 0.0
2017-Dec-03 06:02N 34°38' E 138°13'0 0.6
2017-Dec-03 05:57N 34°37' E 138°13'1 2.2
2017-Dec-03 05:30N 34°38' E 138°14'2 3.4
2017-Dec-03 05:00N 34°39' E 138°16'3 5.6
2017-Dec-03 04:30N 34°38' E 138°19'714.6
2017-Dec-03 04:00N 34°37' E 138°28'715.1
2017-Dec-03 03:30N 34°35' E 138°37'815.6
2017-Dec-03 02:59N 34°33' E 138°46'815.2
2017-Dec-03 02:28N 34°32' E 138°56'714.0
2017-Dec-03 02:00N 34°35' E 139°03'713.8
2017-Dec-03 01:30N 34°40' E 139°09'813.4
2017-Dec-03 00:55N 34°46' E 139°13'614.1
2017-Dec-03 00:28N 34°51' E 139°18'713.9
2017-Dec-03 00:00N 34°55' E 139°24'713.5
2017-Dec-02 23:30N 34°59' E 139°31'815.0
2017-Dec-02 23:01N 35°03' E 139°39'714.8
2017-Dec-02 22:31N 35°09' E 139°45'612.8
2017-Dec-02 22:00N 35°15' E 139°46'612.1
2017-Dec-02 21:31N 35°20' E 139°43'713.8
2017-Dec-02 21:00N 35°27' E 139°43'1 1.8
2017-Dec-02 20:29N 35°28' E 139°42'0 0.0
2017-Dec-02 19:59N 35°28' E 139°42'0 0.0
2017-Dec-02 19:29N 35°28' E 139°42'0 0.0
2017-Dec-02 18:59N 35°28' E 139°42'0 0.0
2017-Dec-02 18:29N 35°28' E 139°42'0 0.1
2017-Dec-02 17:59N 35°28' E 139°42'0 0.0
2017-Dec-02 17:29N 35°28' E 139°42'0 0.1
2017-Dec-02 16:59N 35°28' E 139°42'0 0.0
2017-Dec-02 16:29N 35°28' E 139°42'0 0.0
2017-Dec-02 15:59N 35°28' E 139°42'0 0.1
2017-Dec-02 15:29N 35°28' E 139°42'0 0.1
2017-Dec-02 14:59N 35°28' E 139°42'0 0.0
2017-Dec-02 14:29N 35°28' E 139°42'0 0.0
2017-Dec-02 13:59N 35°28' E 139°42'0 0.0
2017-Dec-02 13:29N 35°28' E 139°42'0 0.1
2017-Dec-02 12:59N 35°28' E 139°42'0 0.0
2017-Dec-02 12:31N 35°28' E 139°42'0 0.0
2017-Dec-02 12:00N 35°28' E 139°42'0 0.9
2017-Dec-02 11:30N 35°28' E 139°42'4 8.0
2017-Dec-02 11:00N 35°27' E 139°47'611.4
2017-Dec-02 10:31N 35°32' E 139°51'611.2
2017-Dec-02 10:00N 35°36' E 139°47'0 0.4
2017-Dec-02 09:30N 35°37' E 139°47'0 0.0
2017-Dec-02 09:00N 35°37' E 139°47'0 0.0
2017-Dec-02 08:30N 35°37' E 139°47'0 0.0
2017-Dec-02 08:00N 35°37' E 139°47'0 0.0
2017-Dec-02 07:30N 35°37' E 139°47'0 0.0
2017-Dec-02 07:00N 35°37' E 139°47'0 0.0
2017-Dec-02 06:30N 35°37' E 139°47'0 0.0
2017-Dec-02 06:00N 35°37' E 139°47'0 0.0
2017-Dec-02 05:30N 35°37' E 139°47'0 0.0
2017-Dec-02 05:00N 35°37' E 139°47'0 0.0
2017-Dec-02 04:30N 35°37' E 139°47'0 0.0
2017-Dec-02 04:00N 35°37' E 139°47'0 0.0
2017-Dec-02 03:30N 35°37' E 139°47'0 0.0
2017-Dec-02 03:00N 35°37' E 139°47'0 0.0
2017-Dec-02 02:30N 35°37' E 139°47'0 0.0
2017-Dec-02 02:00N 35°37' E 139°47'0 0.0
2017-Dec-02 01:30N 35°37' E 139°47'0 0.0
2017-Dec-02 01:00N 35°37' E 139°47'0 0.0
2017-Dec-02 00:30N 35°37' E 139°47'0 0.0
2017-Dec-02 00:00N 35°37' E 139°47'0 0.0
2017-Dec-01 23:30N 35°37' E 139°47'0 0.8
2017-Dec-01 23:00N 35°36' E 139°47'4 8.6
2017-Dec-01 22:30N 35°33' E 139°51'510.4
2017-Dec-01 22:01N 35°28' E 139°51'713.2
2017-Dec-01 21:31N 35°23' E 139°46'5 9.7
2017-Dec-01 21:01N 35°18' E 139°45'510.5
2017-Dec-01 20:30N 35°13' E 139°47'5 9.4
2017-Dec-01 20:01N 35°09' E 139°46'5 9.8
2017-Dec-01 19:30N 35°04' E 139°45'5 9.2
2017-Dec-01 19:01N 35°00' E 139°41'4 8.2
2017-Dec-01 18:30N 34°57' E 139°38'4 7.9
2017-Dec-01 18:00N 34°53' E 139°37'5 9.1
2017-Dec-01 17:30N 34°49' E 139°35'  
Track history (hours):
 
Tides and Currents Weather Stations Pressure Air Temp Water Temp Dewpoint Dewpoint Depression Visibility Wind Speed Wind Dir Waves Ship Positions

MSC Levina

Last reported at 2017-Dec-11 16:59 UTC. Time now 2017-Dec-12 10:21 UTC.
Position N 34°39' E 135°24'.

Length 227.6 m; beam 32.2 m; draft 12.1 m.

Type: Ship. MMSI: 355609000.

Date/timePositionNaut miles runAvg speedWind from/ knotsBaromVisibWave heightAir tempDewpointWater temp
2017-Dec-11 16:59N 34°39' E 135°24'0 0.0
2017-Dec-11 16:29N 34°39' E 135°24'0 0.0
2017-Dec-11 15:59N 34°39' E 135°24'0 0.0
2017-Dec-11 15:29N 34°39' E 135°24'0 0.0
2017-Dec-11 14:59N 34°39' E 135°24'0 0.0
2017-Dec-11 14:29N 34°39' E 135°24'0 0.0
2017-Dec-11 13:59N 34°39' E 135°24'0 0.0
2017-Dec-11 13:29N 34°39' E 135°24'0 0.0
2017-Dec-11 12:59N 34°39' E 135°24'0 0.0
2017-Dec-11 12:26N 34°39' E 135°24'0 0.0
2017-Dec-11 11:59N 34°39' E 135°24'0 0.0
2017-Dec-11 11:29N 34°39' E 135°24'0 0.0
2017-Dec-11 10:59N 34°39' E 135°24'0 0.0
2017-Dec-11 10:26N 34°39' E 135°24'0 0.0
2017-Dec-11 09:59N 34°39' E 135°24'0 0.0
2017-Dec-11 09:29N 34°39' E 135°24'0 0.0
2017-Dec-11 08:59N 34°39' E 135°24'0 0.0
2017-Dec-11 08:29N 34°39' E 135°24'0 0.0
2017-Dec-11 07:59N 34°39' E 135°24'0 0.0
2017-Dec-11 07:29N 34°39' E 135°24'0 0.0
2017-Dec-11 06:59N 34°39' E 135°24'0 0.0
2017-Dec-11 06:26N 34°39' E 135°24'0 0.0
2017-Dec-11 05:59N 34°39' E 135°24'0 0.0
2017-Dec-11 05:29N 34°39' E 135°24'0 0.0
2017-Dec-11 04:59N 34°39' E 135°24'0 0.2
2017-Dec-11 04:31N 34°39' E 135°24'3 5.2
2017-Dec-11 04:00N 34°37' E 135°21'510.5
2017-Dec-11 03:30N 34°33' E 135°17'713.8
2017-Dec-11 03:00N 34°28' E 135°11'816.4
2017-Dec-11 02:30N 34°22' E 135°04'816.4
2017-Dec-11 02:00N 34°15' E 134°59'713.0
2017-Dec-11 01:30N 34°09' E 134°59'611.1
2017-Dec-11 01:00N 34°03' E 134°58'510.8
2017-Dec-11 00:30N 33°58' E 134°58'611.7
2017-Dec-11 00:00N 33°52' E 134°57'611.5
2017-Dec-10 23:30N 33°46' E 134°56'  
2017-Dec-04 08:07N 32°38' E 133°18'26915.8
2017-Dec-03 15:05N 34°30' E 138°12'114.5
2017-Dec-03 15:00N 34°30' E 138°13'714.0
2017-Dec-03 14:30N 34°34' E 138°20'612.6
2017-Dec-03 14:00N 34°39' E 138°14'1 3.0
2017-Dec-03 13:30N 34°38' E 138°13'0 0.0
2017-Dec-03 13:00N 34°38' E 138°13'0 0.0
2017-Dec-03 11:51N 34°37' E 138°13'0 0.0
2017-Dec-03 11:29N 34°37' E 138°13'0 0.0
2017-Dec-03 10:10N 34°38' E 138°13'0 0.0
2017-Dec-03 10:00N 34°38' E 138°13'0 0.0
2017-Dec-03 08:55N 34°38' E 138°13'0 0.0
2017-Dec-03 07:42N 34°37' E 138°13'0 0.0
2017-Dec-03 07:30N 34°37' E 138°13'0 0.0
2017-Dec-03 06:02N 34°38' E 138°13'0 0.6
2017-Dec-03 05:57N 34°37' E 138°13'1 2.2
2017-Dec-03 05:30N 34°38' E 138°14'2 3.4
2017-Dec-03 05:00N 34°39' E 138°16'3 5.6
2017-Dec-03 04:30N 34°38' E 138°19'714.6
2017-Dec-03 04:00N 34°37' E 138°28'715.1
2017-Dec-03 03:30N 34°35' E 138°37'815.6
2017-Dec-03 02:59N 34°33' E 138°46'815.2
2017-Dec-03 02:28N 34°32' E 138°56'714.0
2017-Dec-03 02:00N 34°35' E 139°03'713.8
2017-Dec-03 01:30N 34°40' E 139°09'813.4
2017-Dec-03 00:55N 34°46' E 139°13'614.1
2017-Dec-03 00:28N 34°51' E 139°18'713.9
2017-Dec-03 00:00N 34°55' E 139°24'713.5
2017-Dec-02 23:30N 34°59' E 139°31'815.0
2017-Dec-02 23:01N 35°03' E 139°39'714.8
2017-Dec-02 22:31N 35°09' E 139°45'612.8
2017-Dec-02 22:00N 35°15' E 139°46'612.1
2017-Dec-02 21:31N 35°20' E 139°43'713.8
2017-Dec-02 21:00N 35°27' E 139°43'1 1.8
2017-Dec-02 20:29N 35°28' E 139°42'0 0.0
2017-Dec-02 19:59N 35°28' E 139°42'0 0.0
2017-Dec-02 19:29N 35°28' E 139°42'0 0.0
2017-Dec-02 18:59N 35°28' E 139°42'0 0.0
2017-Dec-02 18:29N 35°28' E 139°42'0 0.1
2017-Dec-02 17:59N 35°28' E 139°42'0 0.0
2017-Dec-02 17:29N 35°28' E 139°42'0 0.1
2017-Dec-02 16:59N 35°28' E 139°42'0 0.0
2017-Dec-02 16:29N 35°28' E 139°42'0 0.0
2017-Dec-02 15:59N 35°28' E 139°42'0 0.1
2017-Dec-02 15:29N 35°28' E 139°42'0 0.1
2017-Dec-02 14:59N 35°28' E 139°42'0 0.0
2017-Dec-02 14:29N 35°28' E 139°42'0 0.0
2017-Dec-02 13:59N 35°28' E 139°42'0 0.0
2017-Dec-02 13:29N 35°28' E 139°42'0 0.1
2017-Dec-02 12:59N 35°28' E 139°42'0 0.0
2017-Dec-02 12:31N 35°28' E 139°42'0 0.0
2017-Dec-02 12:00N 35°28' E 139°42'0 0.9
2017-Dec-02 11:30N 35°28' E 139°42'4 8.0
2017-Dec-02 11:00N 35°27' E 139°47'611.4
2017-Dec-02 10:31N 35°32' E 139°51'611.2
2017-Dec-02 10:00N 35°36' E 139°47'0 0.4
2017-Dec-02 09:30N 35°37' E 139°47'0 0.0
2017-Dec-02 09:00N 35°37' E 139°47'0 0.0
2017-Dec-02 08:30N 35°37' E 139°47'0 0.0
2017-Dec-02 08:00N 35°37' E 139°47'0 0.0
2017-Dec-02 07:30N 35°37' E 139°47'0 0.0
2017-Dec-02 07:00N 35°37' E 139°47'0 0.0
2017-Dec-02 06:30N 35°37' E 139°47'0 0.0
2017-Dec-02 06:00N 35°37' E 139°47'0 0.0
2017-Dec-02 05:30N 35°37' E 139°47'0 0.0
2017-Dec-02 05:00N 35°37' E 139°47'0 0.0
2017-Dec-02 04:30N 35°37' E 139°47'0 0.0
2017-Dec-02 04:00N 35°37' E 139°47'0 0.0
2017-Dec-02 03:30N 35°37' E 139°47'0 0.0
2017-Dec-02 03:00N 35°37' E 139°47'0 0.0
2017-Dec-02 02:30N 35°37' E 139°47'0 0.0
2017-Dec-02 02:00N 35°37' E 139°47'0 0.0
2017-Dec-02 01:30N 35°37' E 139°47'0 0.0
2017-Dec-02 01:00N 35°37' E 139°47'0 0.0
2017-Dec-02 00:30N 35°37' E 139°47'0 0.0
2017-Dec-02 00:00N 35°37' E 139°47'0 0.0
2017-Dec-01 23:30N 35°37' E 139°47'0 0.8
2017-Dec-01 23:00N 35°36' E 139°47'4 8.6
2017-Dec-01 22:30N 35°33' E 139°51'510.4
2017-Dec-01 22:01N 35°28' E 139°51'713.2
2017-Dec-01 21:31N 35°23' E 139°46'5 9.7
2017-Dec-01 21:01N 35°18' E 139°45'510.5
2017-Dec-01 20:30N 35°13' E 139°47'5 9.4
2017-Dec-01 20:01N 35°09' E 139°46'5 9.8
2017-Dec-01 19:30N 35°04' E 139°45'5 9.2
2017-Dec-01 19:01N 35°00' E 139°41'4 8.2
2017-Dec-01 18:30N 34°57' E 139°38'4 7.9
2017-Dec-01 18:00N 34°53' E 139°37'5 9.1
2017-Dec-01 17:30N 34°49' E 139°35'  

Dump ship's entire track history